METAR AND TAF INFORMATION
METAR FOR ELLX
ADDS - METARS form results

(0625 UTC 20 July 2018)
Data provider http://aviationweather.gov/adds/metars/
 
METAR text: ELLX 200620Z 06006KT CAVOK 21/10 Q1015 NOSIG
Conditions at: ELLX (LUXEMBOURG (AUT), LU) observed 0620 UTC 20 July 2018
Temperature: 21.0°C (70°F)
Dewpoint: 10.0°C (50°F) [RH = 49%]
Pressure (altimeter): 29.97 inches Hg (1015.0 mb)
Winds: from the ENE (60 degrees) at 7 MPH (6 knots; 3.1 m/s)
Visibility: 6 or more miles (10+ km)
Ceiling: ceiling and visibility are OK
Clouds: unknown
Weather: no significant weather observed at this time

METAR text: ELLX 200550Z 05006KT CAVOK 21/10 Q1015 NOSIG
Conditions at: ELLX (LUXEMBOURG (AUT), LU) observed 0550 UTC 20 July 2018
Temperature: 21.0°C (70°F)
Dewpoint: 10.0°C (50°F) [RH = 49%]
Pressure (altimeter): 29.97 inches Hg (1015.0 mb)
Winds: from the NE (50 degrees) at 7 MPH (6 knots; 3.1 m/s)
Visibility: 6 or more miles (10+ km)
Ceiling: ceiling and visibility are OK
Clouds: unknown
Weather: no significant weather observed at this time

Forecast for: ELLX (LUXEMBOURG (AUT), LU)
Text: TAF ELLX 200500Z 2006/2112 03006KT CAVOK
Forecast period: 0600 to 1500 UTC 20 July 2018
Forecast type: FROM: standard forecast or significant change
Winds: from the NNE (30 degrees) at 7 MPH (6 knots; 3.1 m/s)
Visibility: 6 or more miles (10+ km)
Clouds: not forecast
Weather: NSW  (no significant weather)
Text: TEMPO 2009/2015 20006KT
Forecast period: 0900 to 1500 UTC 20 July 2018
Forecast type: TEMPORARY: The following changes expected for less than half the time period
Winds: from the SSW (200 degrees) at 7 MPH (6 knots; 3.1 m/s)
Weather: no significant weather forecast for this period
Text: BECMG 2015/2018 31008KT
Forecast period: 1500 UTC 20 July 2018 to 1200 UTC 21 July 2018
Forecast type: BECOMING: Conditions expected to become as follows by 1800 UTC 20 July 2018
Winds: from the NW (310 degrees) at 9 MPH (8 knots; 4.2 m/s)
Visibility: 6 or more miles (10+ km)
Weather: NSW  (no significant weather)
Text: TEMPO 2015/2102 SHRA SCT040CB
Forecast period: 1500 UTC 20 July 2018 to 0200 UTC 21 July 2018
Forecast type: TEMPORARY: The following changes expected for less than half the time period
Clouds: scattered clouds at 4000 feet AGL
Weather: SHRA  (rain showers)

 AIRPORT MAP

 RUNWAY INFORMATION
Runway 06 Runway length 13123 ft Runway width 197 ft
Runway elevation 1158 ft Runway displaced threshold 0 ft Runway heading 60
Runway 24 Runway length 13123 ft Runway width 197 ft
Runway elevation 1214 ft Runway displaced threshold 0 ft Runway heading 240

 AIRPORT FREQUENCIES
Type APP Name APP Frequency 118.9 MHZ
Type ATIS Name ATIS Frequency 135.55 MHZ
Type TWR Name TWR Frequency 118.1 MHZ

 AIRPORT NEAR NAVIGATION AIDS